Terminal Aerodrome Forecast
Issued by NWS Huntsville, AL

Home | Current Version | Previous Version | Text Only | Print | Product List | Glossary On
Versions: 1 2 3 4 5 6 7 8 9 10 11 12 13 14 15 16 17 18 19 20 21 22 23 24 25 26 27 28
000
FTUS44 KHUN 132343
TAFHSV
TAF
KHSV 132343Z 1400/1424 21008KT P6SM SCT250
     FM140300 25005KT P6SM FEW150 SCT250
     FM141000 34008KT P6SM SCT020
     FM141600 34005KT P6SM FEW025 FEW150 SCT250=

USA.gov is the U.S. government's official web portal to all federal, state and local government web resources and services.